createdAt,value
2022-08-17T00:00:43.005Z,19.70
2022-08-17T00:03:17.170Z,19.70
2022-08-17T00:05:48.984Z,19.70
2022-08-17T00:08:20.107Z,19.70
2022-08-17T00:10:51.816Z,19.70
2022-08-17T00:13:25.784Z,19.60
2022-08-17T00:15:59.872Z,19.60
2022-08-17T00:19:01.560Z,19.60
2022-08-17T00:21:25.177Z,19.60
2022-08-17T00:23:54.667Z,19.70
2022-08-17T00:26:44.160Z,19.60
2022-08-17T00:29:19.770Z,19.60
2022-08-17T00:31:49.602Z,19.50
2022-08-17T00:34:19.040Z,19.50
2022-08-17T00:36:47.594Z,19.50
2022-08-17T00:39:16.355Z,19.50
2022-08-17T00:41:46.334Z,19.50
2022-08-17T00:44:15.666Z,19.50
2022-08-17T00:46:45.593Z,19.50
2022-08-17T00:49:19.442Z,19.60
2022-08-17T00:51:55.964Z,19.40
2022-08-17T00:54:29.590Z,19.40
2022-08-17T00:57:03.827Z,19.40
2022-08-17T00:59:36.836Z,19.40
2022-08-17T01:02:07.441Z,19.40
2022-08-17T01:04:37.446Z,19.40
2022-08-17T01:07:07.283Z,19.30
2022-08-17T01:09:36.220Z,19.30
2022-08-17T01:12:10.407Z,19.30
2022-08-17T01:14:40.220Z,19.30
2022-08-17T01:17:10.081Z,19.30
2022-08-17T01:19:42.038Z,19.30
2022-08-17T01:22:21.412Z,19.30
2022-08-17T01:24:54.274Z,19.30
2022-08-17T01:27:24.245Z,19.20
2022-08-17T01:29:58.747Z,19.20
2022-08-17T01:32:28.780Z,19.20
2022-08-17T01:35:00.714Z,19.20
2022-08-17T01:37:34.534Z,19.20
2022-08-17T01:40:07.437Z,19.30
2022-08-17T01:42:40.839Z,19.20
2022-08-17T01:45:13.000Z,19.20
2022-08-17T01:47:42.016Z,19.20
2022-08-17T01:50:14.695Z,19.20
2022-08-17T01:52:46.613Z,19.20
2022-08-17T01:55:18.814Z,19.20
2022-08-17T01:57:47.875Z,19.10
2022-08-17T02:00:18.368Z,19.10
2022-08-17T02:02:46.973Z,19.10
2022-08-17T02:05:15.990Z,19.10
2022-08-17T02:07:59.821Z,19.00
2022-08-17T02:10:33.993Z,19.00
2022-08-17T02:13:03.394Z,19.00
2022-08-17T02:15:32.443Z,19.00
2022-08-17T02:18:01.554Z,19.00
2022-08-17T02:20:42.205Z,19.00
2022-08-17T02:23:15.262Z,19.00
2022-08-17T02:25:47.761Z,18.90
2022-08-17T02:28:17.333Z,18.90
2022-08-17T02:31:00.646Z,18.90
2022-08-17T02:33:42.091Z,18.90
2022-08-17T02:36:13.159Z,18.90
2022-08-17T02:38:44.159Z,18.90
2022-08-17T02:41:13.124Z,18.90
2022-08-17T02:43:42.112Z,18.90
2022-08-17T02:46:12.766Z,18.80
2022-08-17T02:48:42.068Z,18.80
2022-08-17T02:51:10.839Z,18.80
2022-08-17T02:53:39.672Z,18.80
2022-08-17T02:56:09.767Z,18.80
2022-08-17T02:58:38.357Z,18.80
2022-08-17T03:01:08.337Z,18.80
2022-08-17T03:03:37.466Z,18.80
2022-08-17T03:06:07.780Z,18.80
2022-08-17T03:08:37.607Z,18.70
2022-08-17T03:11:06.698Z,18.70
2022-08-17T03:13:36.700Z,18.70
2022-08-17T03:16:05.834Z,18.70
2022-08-17T03:18:34.440Z,18.70
2022-08-17T03:21:04.698Z,18.70
2022-08-17T03:23:33.998Z,18.70
2022-08-17T03:26:03.396Z,18.70
2022-08-17T03:28:31.906Z,18.60
2022-08-17T03:31:03.092Z,18.60
2022-08-17T03:33:31.883Z,18.60
2022-08-17T03:36:00.506Z,18.60
2022-08-17T03:38:29.433Z,18.60
2022-08-17T03:41:08.536Z,18.60
2022-08-17T03:43:37.450Z,18.60
2022-08-17T03:46:28.659Z,18.60
2022-08-17T03:49:23.290Z,18.70
2022-08-17T03:52:09.382Z,18.70
2022-08-17T03:54:55.729Z,18.70
2022-08-17T03:57:24.899Z,18.70
2022-08-17T03:59:54.185Z,18.70
2022-08-17T04:02:28.174Z,18.80
2022-08-17T04:04:57.342Z,18.80
2022-08-17T04:07:28.690Z,18.80
2022-08-17T04:09:58.222Z,18.90
2022-08-17T04:12:30.823Z,18.90
2022-08-17T04:15:00.270Z,18.90
2022-08-17T04:17:30.985Z,19.00
2022-08-17T04:19:59.677Z,19.10
2022-08-17T04:22:33.264Z,19.20
2022-08-17T04:25:07.058Z,19.40
2022-08-17T04:27:35.492Z,19.50
2022-08-17T04:30:06.001Z,19.80
2022-08-17T04:33:05.087Z,20.10
2022-08-17T04:35:37.445Z,20.50
2022-08-17T04:38:06.539Z,20.90
2022-08-17T04:40:53.385Z,21.30
2022-08-17T04:43:23.712Z,21.60
2022-08-17T04:45:56.077Z,21.90
2022-08-17T04:48:35.486Z,22.20
2022-08-17T04:51:08.314Z,22.40
2022-08-17T04:53:37.641Z,22.70
2022-08-17T04:56:07.226Z,22.90
2022-08-17T04:58:35.765Z,23.10
2022-08-17T05:01:06.002Z,23.30
2022-08-17T05:03:36.478Z,23.60
2022-08-17T05:06:06.530Z,23.90
2022-08-17T05:08:35.705Z,24.10
2022-08-17T05:11:04.669Z,24.20
2022-08-17T05:13:34.749Z,24.30
2022-08-17T05:16:04.659Z,24.40
2022-08-17T05:18:34.099Z,24.60
2022-08-17T05:21:04.216Z,24.80
2022-08-17T05:23:41.956Z,25.10
2022-08-17T05:26:21.960Z,25.40
2022-08-17T05:28:59.387Z,25.70
2022-08-17T05:31:29.895Z,26.00
2022-08-17T05:33:59.057Z,26.30
2022-08-17T05:36:41.553Z,26.60
2022-08-17T05:39:16.725Z,26.80
2022-08-17T05:41:47.981Z,27.10
2022-08-17T05:44:17.532Z,27.40
2022-08-17T05:46:51.915Z,27.70
2022-08-17T05:49:29.167Z,28.00
2022-08-17T05:52:12.092Z,28.30
2022-08-17T05:54:50.740Z,28.60
2022-08-17T05:57:39.939Z,29.00
2022-08-17T06:00:20.765Z,29.20
2022-08-17T06:03:11.657Z,29.40
2022-08-17T06:05:55.619Z,29.50
2022-08-17T06:08:35.258Z,29.70
2022-08-17T06:11:11.658Z,29.90
2022-08-17T06:14:16.075Z,30.10
2022-08-17T06:16:49.468Z,30.40
2022-08-17T06:19:21.835Z,30.60
2022-08-17T06:21:54.326Z,30.80
2022-08-17T06:24:29.864Z,30.80
2022-08-17T06:27:05.254Z,30.90
2022-08-17T06:29:42.758Z,31.10
2022-08-17T06:32:14.716Z,31.20
2022-08-17T06:34:44.759Z,31.40
2022-08-17T06:37:44.691Z,31.60
2022-08-17T06:40:47.287Z,31.80
2022-08-17T06:43:28.146Z,32.00
2022-08-17T06:46:02.308Z,32.20
2022-08-17T06:48:40.088Z,32.30
2022-08-17T06:51:17.294Z,32.30
2022-08-17T06:53:52.782Z,32.40
2022-08-17T06:56:53.139Z,32.60
2022-08-17T06:59:26.254Z,32.80
2022-08-17T07:02:06.547Z,32.80
2022-08-17T07:04:37.087Z,33.10
2022-08-17T07:07:23.758Z,33.20
2022-08-17T07:09:54.139Z,33.40
2022-08-17T07:12:27.779Z,33.50
2022-08-17T07:15:05.666Z,33.60
2022-08-17T07:17:46.654Z,33.70
2022-08-17T07:20:23.667Z,33.90
2022-08-17T07:23:00.275Z,33.90
2022-08-17T07:25:30.913Z,33.90
2022-08-17T07:28:07.279Z,33.70
2022-08-17T07:30:45.865Z,33.80
2022-08-17T07:33:20.364Z,33.90
2022-08-17T07:35:50.191Z,33.90
2022-08-17T07:38:24.896Z,33.90
2022-08-17T07:41:04.961Z,33.90
2022-08-17T07:43:37.955Z,34.10
2022-08-17T07:46:40.182Z,34.30
2022-08-17T07:49:24.236Z,34.60
2022-08-17T07:52:24.179Z,34.70
2022-08-17T07:54:50.972Z,34.80
2022-08-17T07:57:34.395Z,35.00
2022-08-17T08:00:23.803Z,35.20
2022-08-17T08:03:18.792Z,35.40
2022-08-17T08:05:54.141Z,35.60
2022-08-17T08:08:36.379Z,35.80
2022-08-17T08:11:09.758Z,35.90
2022-08-17T08:13:43.926Z,36.00
2022-08-17T08:16:30.264Z,36.00
2022-08-17T08:19:01.085Z,36.20
2022-08-17T08:21:42.943Z,36.30
2022-08-17T08:24:31.182Z,36.30
2022-08-17T08:27:09.254Z,36.30
2022-08-17T08:29:45.530Z,36.20
2022-08-17T08:32:26.931Z,36.00
2022-08-17T08:35:04.894Z,36.00
2022-08-17T08:37:44.287Z,36.00
2022-08-17T08:40:29.947Z,35.90
2022-08-17T08:43:08.308Z,35.90
2022-08-17T08:45:45.674Z,35.90
2022-08-17T08:48:53.956Z,35.90
2022-08-17T08:51:31.209Z,35.90
2022-08-17T08:54:08.359Z,35.90
2022-08-17T08:56:58.975Z,35.90
2022-08-17T08:59:57.889Z,35.90
2022-08-17T09:02:50.109Z,35.80
2022-08-17T09:05:30.441Z,35.70
2022-08-17T09:08:10.731Z,35.50
2022-08-17T09:10:58.495Z,35.40
2022-08-17T09:13:37.260Z,35.40
2022-08-17T09:16:15.408Z,35.30
2022-08-17T09:19:02.159Z,35.30
2022-08-17T09:21:43.078Z,35.20
2022-08-17T09:24:25.101Z,35.10
2022-08-17T09:27:00.653Z,35.10
2022-08-17T09:29:35.591Z,35.20
2022-08-17T09:32:10.320Z,35.20
2022-08-17T09:34:47.063Z,35.10
2022-08-17T09:37:24.339Z,35.10
2022-08-17T09:40:03.920Z,34.90
2022-08-17T09:42:39.097Z,34.80
2022-08-17T09:45:17.496Z,34.60
2022-08-17T09:47:51.605Z,34.50
2022-08-17T09:50:55.337Z,34.50
2022-08-17T09:53:14.590Z,34.40
2022-08-17T09:56:01.765Z,34.30
2022-08-17T09:58:43.649Z,34.30
2022-08-17T10:01:21.303Z,34.10
2022-08-17T10:04:11.930Z,34.10
2022-08-17T10:06:52.344Z,34.20
2022-08-17T10:09:33.439Z,34.20
2022-08-17T10:12:20.523Z,34.30
2022-08-17T10:15:08.197Z,34.30
2022-08-17T10:17:55.690Z,34.30
2022-08-17T10:20:29.608Z,34.10
2022-08-17T10:23:19.507Z,34.10
2022-08-17T10:26:11.499Z,34.20
2022-08-17T10:28:50.216Z,34.20
2022-08-17T10:31:35.915Z,34.10
2022-08-17T10:34:47.532Z,34.10
2022-08-17T10:37:41.717Z,33.90
2022-08-17T10:40:24.793Z,33.70
2022-08-17T10:43:01.316Z,33.50
2022-08-17T10:45:35.858Z,33.40
2022-08-17T10:48:32.459Z,33.40
2022-08-17T10:51:08.792Z,33.30
2022-08-17T10:53:54.561Z,33.20
2022-08-17T10:56:39.475Z,33.10
2022-08-17T10:59:10.407Z,33.00
2022-08-17T11:02:08.227Z,33.00
2022-08-17T11:04:52.537Z,32.90
2022-08-17T11:07:35.051Z,32.80
2022-08-17T11:10:20.098Z,32.70
2022-08-17T11:13:01.432Z,32.60
2022-08-17T11:15:47.208Z,32.50
2022-08-17T11:18:29.856Z,32.30
2022-08-17T11:21:26.334Z,32.30
2022-08-17T11:24:06.128Z,32.30
2022-08-17T11:26:37.024Z,32.30
2022-08-17T11:29:09.951Z,32.20
2022-08-17T11:31:44.711Z,32.20
2022-08-17T11:34:19.963Z,32.20
2022-08-17T11:37:21.100Z,32.10
2022-08-17T11:40:19.479Z,32.00
2022-08-17T11:43:03.513Z,32.00
2022-08-17T11:45:53.402Z,31.80
2022-08-17T11:48:50.531Z,31.90
2022-08-17T11:51:41.954Z,31.80
2022-08-17T11:54:32.309Z,31.80
2022-08-17T11:57:22.455Z,31.80
2022-08-17T12:00:00.427Z,31.80
2022-08-17T12:02:39.056Z,31.80
2022-08-17T12:05:35.347Z,31.80
2022-08-17T12:08:15.365Z,31.80
2022-08-17T12:11:03.120Z,31.90
2022-08-17T12:13:39.786Z,32.00
2022-08-17T12:16:10.105Z,32.00
2022-08-17T12:18:42.178Z,31.90
2022-08-17T12:21:37.886Z,31.90
2022-08-17T12:24:19.090Z,31.90
2022-08-17T12:26:53.595Z,31.90
2022-08-17T12:29:35.637Z,31.90
2022-08-17T12:32:14.422Z,31.90
2022-08-17T12:34:45.325Z,32.00
2022-08-17T12:37:19.971Z,32.00
2022-08-17T12:39:55.761Z,32.00
2022-08-17T12:42:29.330Z,32.00
2022-08-17T12:44:58.325Z,32.00
2022-08-17T12:47:29.417Z,32.00
2022-08-17T12:50:08.430Z,32.00
2022-08-17T12:53:02.252Z,32.00
2022-08-17T12:55:36.511Z,32.10
2022-08-17T12:58:05.405Z,32.10
2022-08-17T13:00:38.069Z,32.10
2022-08-17T13:03:09.751Z,32.10
2022-08-17T13:05:44.113Z,32.00
2022-08-17T13:08:18.315Z,32.00
2022-08-17T13:10:56.567Z,31.80
2022-08-17T13:13:28.566Z,31.70
2022-08-17T13:15:59.739Z,31.60
2022-08-17T13:18:41.876Z,31.50
2022-08-17T13:21:19.318Z,31.40
2022-08-17T13:23:58.370Z,31.40
2022-08-17T13:26:32.539Z,31.40
2022-08-17T13:29:02.209Z,31.40
2022-08-17T13:31:52.400Z,31.50
2022-08-17T13:34:38.694Z,31.60
2022-08-17T13:37:32.715Z,31.50
2022-08-17T13:40:21.152Z,31.50
2022-08-17T13:42:53.824Z,31.40
2022-08-17T13:45:46.005Z,31.40
2022-08-17T13:48:28.255Z,31.30
2022-08-17T13:51:32.003Z,31.20
2022-08-17T13:54:26.354Z,31.20
2022-08-17T13:57:00.502Z,31.10
2022-08-17T13:59:53.015Z,31.00
2022-08-17T14:02:28.242Z,30.90
2022-08-17T14:05:00.526Z,31.00
2022-08-17T14:07:35.754Z,31.00
2022-08-17T14:10:10.415Z,31.00
2022-08-17T14:12:42.276Z,31.00
2022-08-17T14:15:12.451Z,31.00
2022-08-17T14:17:41.005Z,31.00
2022-08-17T14:20:12.216Z,31.10
2022-08-17T14:22:46.805Z,31.10
2022-08-17T14:25:17.594Z,31.10
2022-08-17T14:27:53.158Z,31.10
2022-08-17T14:30:24.937Z,31.10
2022-08-17T14:32:54.600Z,31.00
2022-08-17T14:35:24.752Z,31.00
2022-08-17T14:37:54.174Z,31.00
2022-08-17T14:40:25.423Z,31.00
2022-08-17T14:42:57.857Z,30.90
2022-08-17T14:45:29.894Z,30.90
2022-08-17T14:48:05.687Z,30.90
2022-08-17T14:50:35.392Z,30.90
2022-08-17T14:53:05.938Z,30.90
2022-08-17T14:55:34.623Z,30.80
2022-08-17T14:58:05.057Z,30.80
2022-08-17T15:00:33.893Z,30.80
2022-08-17T15:03:03.434Z,30.80
2022-08-17T15:05:33.673Z,30.80
2022-08-17T15:08:03.465Z,30.70
2022-08-17T15:10:32.314Z,30.70
2022-08-17T15:13:00.871Z,30.70
2022-08-17T15:15:31.869Z,30.60
2022-08-17T15:18:01.032Z,30.60
2022-08-17T15:20:31.478Z,30.60
2022-08-17T15:23:00.178Z,30.60
2022-08-17T15:25:31.889Z,30.60
2022-08-17T15:28:01.590Z,30.60
2022-08-17T15:30:32.412Z,30.60
2022-08-17T15:33:01.204Z,30.50
2022-08-17T15:35:32.637Z,30.50
2022-08-17T15:38:09.762Z,30.50
2022-08-17T15:40:42.396Z,30.50
2022-08-17T15:43:14.004Z,30.40
2022-08-17T15:45:44.045Z,30.40
2022-08-17T15:48:14.260Z,30.30
2022-08-17T15:50:42.996Z,30.30
2022-08-17T15:53:11.789Z,30.30
2022-08-17T15:55:43.937Z,30.30
2022-08-17T15:58:12.442Z,30.20
2022-08-17T16:00:53.124Z,30.20
2022-08-17T16:03:56.032Z,30.20
2022-08-17T16:06:20.841Z,30.20
2022-08-17T16:08:49.492Z,30.10
2022-08-17T16:11:18.764Z,30.10
2022-08-17T16:13:55.104Z,30.10
2022-08-17T16:16:24.883Z,30.10
2022-08-17T16:18:59.280Z,30.00
2022-08-17T16:21:31.110Z,30.00
2022-08-17T16:24:13.232Z,30.00
2022-08-17T16:26:42.353Z,29.90
2022-08-17T16:29:10.812Z,29.90
2022-08-17T16:31:39.415Z,29.80
2022-08-17T16:34:17.924Z,29.80
2022-08-17T16:36:54.836Z,29.80
2022-08-17T16:39:26.625Z,29.80
2022-08-17T16:41:56.028Z,29.70
2022-08-17T16:44:25.924Z,29.70
2022-08-17T16:46:54.555Z,29.70
2022-08-17T16:49:36.815Z,29.70
2022-08-17T16:52:07.953Z,29.70
2022-08-17T16:54:38.999Z,29.60
2022-08-17T16:57:07.660Z,29.50
2022-08-17T16:59:41.893Z,29.50
2022-08-17T17:02:15.113Z,29.50
2022-08-17T17:04:50.466Z,29.50
2022-08-17T17:07:34.821Z,29.40
2022-08-17T17:10:08.563Z,29.40
2022-08-17T17:13:02.247Z,29.40
2022-08-17T17:15:40.377Z,29.30
2022-08-17T17:18:14.715Z,29.30
2022-08-17T17:20:54.217Z,29.20
2022-08-17T17:23:37.163Z,29.10
2022-08-17T17:26:15.789Z,29.10
2022-08-17T17:28:55.193Z,29.00
2022-08-17T17:31:29.496Z,29.00
2022-08-17T17:34:00.526Z,29.00
2022-08-17T17:36:39.275Z,29.00
2022-08-17T17:39:13.217Z,28.90
2022-08-17T17:41:48.486Z,28.90
2022-08-17T17:44:21.121Z,28.80
2022-08-17T17:46:54.261Z,28.70
2022-08-17T17:49:23.322Z,28.70
2022-08-17T17:52:11.137Z,28.60
2022-08-17T17:54:59.843Z,28.60
2022-08-17T17:57:40.201Z,28.50
2022-08-17T18:00:14.219Z,28.50
2022-08-17T18:02:53.270Z,28.40
2022-08-17T18:05:38.898Z,28.30
2022-08-17T18:08:33.909Z,28.20
2022-08-17T18:11:12.973Z,28.20
2022-08-17T18:13:57.532Z,28.10
2022-08-17T18:16:29.622Z,28.00
2022-08-17T18:19:01.360Z,27.90
2022-08-17T18:21:37.849Z,27.90
2022-08-17T18:24:10.522Z,27.80
2022-08-17T18:26:44.815Z,27.70
2022-08-17T18:29:25.169Z,27.60
2022-08-17T18:32:19.956Z,27.50
2022-08-17T18:34:51.011Z,27.40
2022-08-17T18:37:48.090Z,27.40
2022-08-17T18:40:37.652Z,27.20
2022-08-17T18:43:11.273Z,27.20
2022-08-17T18:45:44.208Z,27.10
2022-08-17T18:48:22.372Z,27.00
2022-08-17T18:50:53.475Z,26.90
2022-08-17T18:53:36.482Z,26.80
2022-08-17T18:56:22.524Z,26.80
2022-08-17T18:59:02.085Z,26.70
2022-08-17T19:01:52.403Z,26.60
2022-08-17T19:04:34.552Z,26.50
2022-08-17T19:07:11.588Z,26.40
2022-08-17T19:09:44.839Z,26.30
2022-08-17T19:12:27.340Z,26.30
2022-08-17T19:14:58.053Z,26.10
2022-08-17T19:17:33.468Z,26.10
2022-08-17T19:20:11.444Z,26.00
2022-08-17T19:23:07.868Z,25.90
2022-08-17T19:25:41.292Z,25.80
2022-08-17T19:28:22.261Z,25.80
2022-08-17T19:30:57.223Z,25.70
2022-08-17T19:33:25.969Z,25.70
2022-08-17T19:36:07.088Z,25.60
2022-08-17T19:38:45.048Z,25.60
2022-08-17T19:41:21.825Z,25.50
2022-08-17T19:44:19.624Z,25.40
2022-08-17T19:46:56.367Z,25.40
2022-08-17T19:49:45.649Z,25.30
2022-08-17T19:52:41.358Z,25.20
2022-08-17T19:55:20.645Z,25.10
2022-08-17T19:58:01.159Z,25.00
2022-08-17T20:00:32.218Z,25.00
2022-08-17T20:03:06.383Z,24.90
2022-08-17T20:06:08.815Z,24.80
2022-08-17T20:08:30.560Z,24.70
2022-08-17T20:11:03.008Z,24.70
2022-08-17T20:13:37.588Z,24.60
2022-08-17T20:16:10.012Z,24.50
2022-08-17T20:18:47.471Z,24.40
2022-08-17T20:21:20.526Z,24.40
2022-08-17T20:23:54.976Z,24.40
2022-08-17T20:26:27.340Z,24.30
2022-08-17T20:29:37.569Z,24.30
2022-08-17T20:32:32.380Z,24.30
2022-08-17T20:35:20.005Z,24.20
2022-08-17T20:38:01.946Z,24.20
2022-08-17T20:40:38.540Z,24.20
2022-08-17T20:43:40.118Z,24.20
2022-08-17T20:46:20.037Z,24.20
2022-08-17T20:48:54.110Z,24.20
2022-08-17T20:51:31.571Z,24.20
2022-08-17T20:54:24.138Z,24.20
2022-08-17T20:56:56.299Z,24.20
2022-08-17T20:59:56.768Z,24.10
2022-08-17T21:02:28.074Z,24.20
2022-08-17T21:05:08.125Z,24.10
2022-08-17T21:07:55.879Z,24.10
2022-08-17T21:10:36.707Z,24.10
2022-08-17T21:13:35.611Z,24.10
2022-08-17T21:16:11.363Z,24.10
2022-08-17T21:18:45.572Z,24.10
2022-08-17T21:21:24.141Z,24.10
2022-08-17T21:24:14.977Z,24.10
2022-08-17T21:26:55.445Z,24.10
2022-08-17T21:29:30.860Z,24.10
2022-08-17T21:32:23.728Z,24.10
2022-08-17T21:35:23.197Z,24.00
2022-08-17T21:37:57.431Z,24.00
2022-08-17T21:40:29.003Z,24.00
2022-08-17T21:43:00.446Z,23.90
2022-08-17T21:45:31.754Z,23.90
2022-08-17T21:48:13.384Z,23.90
2022-08-17T21:50:46.271Z,23.90
2022-08-17T21:53:30.673Z,23.90
2022-08-17T21:56:01.970Z,23.90
2022-08-17T21:58:33.182Z,23.90
2022-08-17T22:01:23.466Z,23.90
2022-08-17T22:04:08.656Z,23.90
2022-08-17T22:06:39.872Z,23.90
2022-08-17T22:09:19.046Z,23.80
2022-08-17T22:12:07.938Z,23.80
2022-08-17T22:14:52.913Z,23.80
2022-08-17T22:17:24.793Z,23.80
2022-08-17T22:19:56.373Z,23.80
2022-08-17T22:22:34.629Z,23.70
2022-08-17T22:25:08.021Z,23.70
2022-08-17T22:27:51.532Z,23.70
2022-08-17T22:30:36.444Z,23.70
2022-08-17T22:33:37.769Z,23.70
2022-08-17T22:36:12.309Z,23.70
2022-08-17T22:38:43.590Z,23.70
2022-08-17T22:41:34.812Z,23.70
2022-08-17T22:44:24.163Z,23.70
2022-08-17T22:47:00.180Z,23.60
2022-08-17T22:49:32.459Z,23.60
2022-08-17T22:52:19.528Z,23.60
2022-08-17T22:55:09.530Z,23.50
2022-08-17T22:58:05.896Z,23.50
2022-08-17T23:00:40.046Z,23.40
2022-08-17T23:03:23.315Z,23.40
2022-08-17T23:06:05.217Z,23.40
2022-08-17T23:08:36.034Z,23.40
2022-08-17T23:11:06.445Z,23.30
2022-08-17T23:13:37.944Z,23.30
2022-08-17T23:16:06.450Z,23.30
2022-08-17T23:18:35.540Z,23.30
2022-08-17T23:21:05.075Z,23.30
2022-08-17T23:23:34.781Z,23.20
2022-08-17T23:26:02.983Z,23.20
2022-08-17T23:28:31.472Z,23.20
2022-08-17T23:31:01.416Z,23.20
2022-08-17T23:33:33.645Z,23.20
2022-08-17T23:36:02.553Z,23.20
2022-08-17T23:38:32.960Z,23.10
2022-08-17T23:41:08.907Z,23.10
2022-08-17T23:43:55.634Z,23.10
2022-08-17T23:46:25.289Z,23.10
2022-08-17T23:48:54.432Z,23.00
2022-08-17T23:51:26.300Z,23.00
2022-08-17T23:54:00.471Z,23.00
2022-08-17T23:56:31.282Z,23.00
2022-08-17T23:59:00.219Z,22.90
